Time;durP1;ratioP1;P1;durP2;ratioP2;P2;SDS_P1;SDS_P2;PMS_P1;PMS_P2;Temp;Humidity;BMP_temperature;BMP_pressure;BME280_temperature;BME280_humidity;BME280_pressure;Samples;Min_cycle;Max_cycle;Signal;HPM_P1;HPM_P2
2023/10/14 00:00:26;;;;;;;;;;;;;;;;;;5017870;28;19947;-88
2023/10/14 00:02:52;;;;;;;;;;;;;;;;;;5020570;28;19984;-90
2023/10/14 00:05:19;;;;;;;;;;;;;;;;;;5005980;28;19996;-88
2023/10/14 00:07:52;;;;;;;;;;;;;;;;;;5006071;28;19924;-89
2023/10/14 00:10:17;;;;;;;;;;;;;;;;;;5022132;28;19913;-89
2023/10/14 00:12:43;;;;;;;;;;;;;;;;;;5037763;28;19924;-88
2023/10/14 00:15:12;;;;;;;;;;;;;;;;;;5037733;28;20355;-89
2023/10/14 00:17:41;;;;;;;;;;;;;;;;;;5035715;28;19980;-92
2023/10/14 00:20:09;;;;;;;;;;;;;;;;;;5023243;28;19975;-90
2023/10/14 00:22:38;;;;;;;;;;;;;;;;;;5038607;28;19924;-91
2023/10/14 00:25:18;;;;;;;;;;;;;;;;;;5035261;28;19958;-88
2023/10/14 00:27:44;;;;;;;;;;;;;;;;;;5038868;28;20007;-90
2023/10/14 00:30:12;;;;;;;;;;;;;;;;;;5021208;28;19954;-89
2023/10/14 00:32:40;;;;;;;;;;;;;;;;;;5020387;28;19928;-88
2023/10/14 00:35:09;;;;;;;;;;;;;;;;;;5056539;28;19912;-91
2023/10/14 00:37:35;;;;;;;;;;;;;;;;;;5039417;28;19917;-89
2023/10/14 00:43:05;;;;;;;;;;;;;;;;;;5022545;28;19921;-88
2023/10/14 00:45:31;;;;;;;;;;;;;;;;;;5025577;28;19924;-89
2023/10/14 00:48:00;;;;;;;;;;;;;;;;;;5022779;28;19917;-90
2023/10/14 00:50:35;;;;;;;;;;;;;;;;;;5044157;28;19921;-88
2023/10/14 00:53:04;;;;;;;;;;;;;;;;;;5021513;28;19917;-88
2023/10/14 00:55:48;;;;;;;;;;;;;;;;;;5031259;28;19966;-90
2023/10/14 00:58:28;;;;;;;;;;;;;;;;;;5026978;28;19912;-91
2023/10/14 01:01:06;;;;;;;;;;;;;;;;;;5017535;28;19923;-90
2023/10/14 01:03:36;;;;;;;;;;;;;;;;;;5026864;28;19917;-91
2023/10/14 01:06:21;;;;;;;;;;;;;;;;;;5014792;28;20234;-90
2023/10/14 01:08:46;;;;;;;;;;;;;;;;;;5036636;28;19921;-93
2023/10/14 01:11:16;;;;;;;;;;;;;;;;;;5020307;28;19917;-90
2023/10/14 01:17:01;;;;;;;;;;;;;;;;;;5053786;28;19963;-91
2023/10/14 01:19:30;;;;;;;;;;;;;;;;;;5034733;28;19935;-91
2023/10/14 01:21:57;;;;;;;;;;;;;;;;;;5035063;28;19916;-88
2023/10/14 01:24:22;;;;;;;;;;;;;;;;;;5040237;28;19921;-90
2023/10/14 01:27:05;;;;;;;;;;;;;;;;;;5042702;28;19981;-87
2023/10/14 01:29:31;;;;;;;;;;;;;;;;;;5027581;28;19944;-91
2023/10/14 01:32:06;;;;;;;;;;;;;;;;;;5028878;28;19931;-89
2023/10/14 01:34:42;;;;;;;;;;;;;;;;;;5028457;28;20000;-88
2023/10/14 01:37:19;;;;;;;;;;;;;;;;;;5027764;28;19920;-90
2023/10/14 01:43:24;;;;;;;;;;;;;;;;;;5068679;28;20341;-88
2023/10/14 01:46:09;;;;;;;;;;;;;;;;;;5046218;28;19940;-91
2023/10/14 01:48:38;;;;;;;;;;;;;;;;;;5026779;28;19932;-90
2023/10/14 01:51:25;;;;;;;;;;;;;;;;;;5010282;28;20003;-90
2023/10/14 01:54:03;;;;;;;;;;;;;;;;;;5030867;28;19913;-91
2023/10/14 01:56:51;;;;;;;;;;;;;;;;;;5040514;28;19923;-88
2023/10/14 01:59:23;;;;;;;;;;;;;;;;;;5025792;28;19959;-90
2023/10/14 02:02:21;;;;;;;;;;;;;;;;;;4989112;28;19992;-91
2023/10/14 02:04:59;;;;;;;;;;;;;;;;;;5050620;28;19917;-90
2023/10/14 02:07:32;;;;;;;;;;;;;;;;;;5024747;28;19916;-90
2023/10/14 02:10:03;;;;;;;;;;;;;;;;;;5037622;28;19925;-90
2023/10/14 02:12:44;;;;;;;;;;;;;;;;;;5040383;28;19913;-92
2023/10/14 02:15:18;;;;;;;;;;;;;;;;;;5024626;28;19995;-90
2023/10/14 02:17:53;;;;;;;;;;;;;;;;;;;;;
2023/10/14 02:20:38;;;;;;;;;;;;;;;;;;5044535;28;19967;-91
2023/10/14 02:23:23;;;;;;;;;;;;;;;;;;;;;
2023/10/14 02:28:45;;;;;;;;;;;;;;;;;;4961678;28;20373;-91
2023/10/14 02:31:29;;;;;;;;;;;;;;;;;;4966091;28;19922;-89
2023/10/14 02:34:39;;;;;;;;;;;;;;;;;;;;;
2023/10/14 02:37:24;;;;;;;;;;;;;;;;;;4983547;28;19980;-88
2023/10/14 02:40:04;;;;;;;;;;;;;;;;;;;;;
2023/10/14 02:42:36;;;;;;;;;;;;;;;;;;5042706;28;19968;-88
2023/10/14 02:45:12;;;;;;;;;;;;;;;;;;5043579;28;20310;-87
2023/10/14 02:48:01;;;;;;;;;;;;;;;;;;4986523;28;19913;-88
2023/10/14 02:51:06;;;;;;;;;;;;;;;;;;5034426;28;20007;-89
2023/10/14 02:53:56;;;;;;;;;;;;;;;;;;5013625;28;19936;-90
2023/10/14 03:03:02;;;;;;;;;;;;;;;;;;4874938;29;19920;-88
2023/10/14 03:09:52;;;;;;;;;;;;;;;;;;4873154;29;20289;-89
2023/10/14 03:12:31;;;;;;;;;;;;;;;;;;4904678;29;19960;-90
2023/10/14 03:15:00;;;;;;;;;;;;;;;;;;4886758;29;20038;-91
2023/10/14 03:27:07;;;;;;;;;;;;;;;;;;4795828;29;19918;-90
2023/10/14 03:33:10;;;;;;;;;;;;;;;;;;4801040;29;19925;-89
2023/10/14 03:35:47;;;;;;;;;;;;;;;;;;4833298;29;20012;-89
2023/10/14 03:42:09;;;;;;;;;;;;;;;;;;4871716;28;19955;-89
2023/10/14 04:04:48;;;;;;;;;;;;;;;;;;4967394;28;19925;-91
2023/10/14 04:14:41;;;;;;;;;;;;;;;;;;;;;
2023/10/14 04:26:41;;;;;;;;;;;;;;;;;;4939698;29;19986;-90
2023/10/14 04:35:56;;;;;;;;;;;;;;;;;;4938804;29;20055;-89
2023/10/14 04:41:25;;;;;;;;;;;;;;;;;;;;;
2023/10/14 04:44:02;;;;;;;;;;;;;;;;;;5018611;28;19913;-92
2023/10/14 04:49:42;;;;;;;;;;;;;;;;;;4934856;29;19942;-89
2023/10/14 05:19:57;;;;;;;;;;;;;;;;;;4817670;29;20502;-88
2023/10/14 05:22:56;;;;;;;;;;;;;;;;;;4795617;29;19975;-89
2023/10/14 05:25:27;;;;;;;;;;;;;;;;;;4798621;29;19972;-90
2023/10/14 05:27:58;;;;;;;;;;;;;;;;;;4880899;29;19915;-90
2023/10/14 05:30:39;;;;;;;;;;;;;;;;;;4924754;29;19926;-92
2023/10/14 05:33:07;;;;;;;;;;;;;;;;;;4926308;29;19922;-89
2023/10/14 05:35:34;;;;;;;;;;;;;;;;;;4937624;29;20356;-90
2023/10/14 05:38:14;;;;;;;;;;;;;;;;;;4940133;29;20473;-91
2023/10/14 05:40:39;;;;;;;;;;;;;;;;;;4938503;29;19923;-87
2023/10/14 05:43:14;;;;;;;;;;;;;;;;;;4955058;28;20351;-90
2023/10/14 05:45:46;;;;;;;;;;;;;;;;;;4929963;29;19990;-89
2023/10/14 05:57:39;;;;;;;;;;;;;;;;;;4939612;29;19926;-91
2023/10/14 06:00:23;;;;;;;;;;;;;;;;;;4932977;29;19970;-91
2023/10/14 06:03:10;;;;;;;;;;;;;;;;;;4927662;29;19915;-89
2023/10/14 06:05:39;;;;;;;;;;;;;;;;;;4952111;28;20100;-88
2023/10/14 06:08:16;;;;;;;;;;;;;;;;;;4948455;28;19929;-88
2023/10/14 06:10:42;;;;;;;;;;;;;;;;;;4961298;28;19922;-88
2023/10/14 06:16:00;;;;;;;;;;;;;;;;;;5053230;28;19932;-88
2023/10/14 06:18:47;;;;;;;;;;;;;;;;;;5020008;28;19913;-89
2023/10/14 06:21:19;;;;;;;;;;;;;;;;;;5055730;28;19978;-89
2023/10/14 06:23:47;;;;;;;;;;;;;;;;;;5018996;28;19913;-89
2023/10/14 06:26:22;;;;;;;;;;;;;;;;;;5036082;28;20051;-89
2023/10/14 06:28:57;;;;;;;;;;;;;;;;;;5021418;28;20409;-87
2023/10/14 06:37:27;;;;;;;;;;;;;;;;;;5056246;28;19970;-88
2023/10/14 06:39:56;;;;;;;;;;;;;;;;;;5026649;28;19916;-86
2023/10/14 06:42:26;;;;;;;;;;;;;;;;;;5037026;28;19935;-89
2023/10/14 06:48:10;;;;;;;;;;;;;;;;;;5029206;28;19975;-86
2023/10/14 06:50:48;;;;;;;;;;;;;;;;;;4998486;28;19914;-85
2023/10/14 06:53:20;;;;;;;;;;;;;;;;;;5015560;28;19913;-88
2023/10/14 06:55:50;;;;;;;;;;;;;;;;;;5027912;28;19997;-88
2023/10/14 06:58:21;;;;;;;;;;;;;;;;;;5028414;28;19954;-88
2023/10/14 07:00:48;;;;;;;;;;;;;;;;;;5012701;28;20095;-87
2023/10/14 07:03:28;;;;;;;;;;;;;;;;;;5023582;28;19956;-88
2023/10/14 07:08:27;;;;;;;;;;;;;;;;;;5016688;28;20244;-89
2023/10/14 07:10:54;;;;;;;;;;;;;;;;;;4997070;28;19913;-91
2023/10/14 07:13:27;;;;;;;;;;;;;;;;;;5004012;28;19925;-91
2023/10/14 07:15:55;;;;;;;;;;;;;;;;;;5021944;28;19935;-90
2023/10/14 07:21:57;;;;;;;;;;;;;;;;;;4980898;28;19925;-87
2023/10/14 07:24:23;;;;;;;;;;;;;;;;;;4951340;28;19925;-88
2023/10/14 07:30:13;;;;;;;;;;;;;;;;;;4981257;28;20001;-88
2023/10/14 07:32:54;;;;;;;;;;;;;;;;;;4959928;28;19978;-88
2023/10/14 07:35:26;;;;;;;;;;;;;;;;;;4980061;28;19965;-88
2023/10/14 07:37:52;;;;;;;;;;;;;;;;;;5017039;28;19955;-89
2023/10/14 07:40:23;;;;;;;;;;;;;;;;;;5025292;28;20016;-88
2023/10/14 07:43:10;;;;;;;;;;;;;;;;;;5058785;28;20031;-87
2023/10/14 07:45:35;;;;;;;;;;;;;;;;;;5038530;28;19912;-90
2023/10/14 07:48:13;;;;;;;;;;;;;;;;;;5029299;28;20226;-89
2023/10/14 07:50:42;;;;;;;;;;;;;;;;;;5045820;28;20262;-89
2023/10/14 07:53:13;;;;;;;;;;;;;;;;;;5029888;28;19996;-89
2023/10/14 07:55:40;;;;;;;;;;;;;;;;;;5028016;28;19956;-86
2023/10/14 07:58:13;;;;;;;;;;;;;;;;;;5060185;28;19909;-91
2023/10/14 08:00:39;;;;;;;;;;;;;;;;;;5041984;28;19943;-89
2023/10/14 08:03:06;;;;;;;;;;;;;;;;;;5025868;28;19912;-90
2023/10/14 08:05:32;;;;;;;;;;;;;;;;;;5038499;28;19921;-89
2023/10/14 08:08:08;;;;;;;;;;;;;;;;;;5013900;28;19924;-91
2023/10/14 08:10:43;;;;;;;;;;;;;;;;;;5010649;28;19968;-91
2023/10/14 08:19:06;;;;;;;;;;;;;;;;;;5003646;22;20431;-64
2023/10/14 08:21:43;;;;;;;;;;;;;;;;;;4993853;28;19928;-64
2023/10/14 08:24:16;;;;;;;;;;;;;;;;;;4930321;28;19961;-64
2023/10/14 08:26:43;;;;;;;;;;;;;;;;;;4994813;28;19992;-64
2023/10/14 08:29:12;;;;;;;;;;;;;;;;;;4947499;28;20051;-65
2023/10/14 08:34:53;;;;;;;;;;;;;;;;;;4945444;28;19971;-65
2023/10/14 08:37:19;;;;;;;;;;;;;;;;;;4914601;28;19979;-63
2023/10/14 08:45:53;;;;;;;;;;;;;;;;;;4964543;28;19922;-65
2023/10/14 08:48:19;;;;;;;;;;;;;;;;;;5008266;28;20361;-65
2023/10/14 08:50:45;;;;;;;;;;;;;;;;;;4923001;28;19922;-63
2023/10/14 08:55:58;;;;;;;;;;;;;;;;;;4926102;28;20352;-66
2023/10/14 08:58:46;;;;;;;;;;;;;;;;;;4936304;28;20372;-65
2023/10/14 09:01:16;;;;;;;;;;;;;;;;;;4950429;28;20325;-66
2023/10/14 09:03:41;;;;;;;;;;;;;;;;;;4945557;28;20417;-66
2023/10/14 09:06:09;;;;;;;;;;;;;;;;;;4926489;28;19922;-65
2023/10/14 09:08:34;;;;;;;;;;;;;;;;;;5012822;28;19925;-65
2023/10/14 09:14:31;;;;;;;;;;;;;;;;;;4949699;28;20343;-66
2023/10/14 09:17:03;;;;;;;;;;;;;;;;;;4945721;28;19926;-64
2023/10/14 09:20:01;;;;;;;;;;;;;;;;;;4949583;28;20019;-66
2023/10/14 09:22:27;;;;;;;;;;;;;;;;;;4962744;28;20009;-66
2023/10/14 09:24:52;;;;;;;;;;;;;;;;;;4949562;28;20001;-65
2023/10/14 09:27:50;;;;;;;;;;;;;;;;;;4951380;28;19979;-65
2023/10/14 09:30:18;;;;;;;;;;;;;;;;;;4962856;28;20445;-64
2023/10/14 09:32:51;;;;;;;;;;;;;;;;;;5008495;28;20009;-63
2023/10/14 09:35:26;;;;;;;;;;;;;;;;;;4951916;28;19936;-64
2023/10/14 09:37:54;;;;;;;;;;;;;;;;;;4948354;28;19929;-64
2023/10/14 09:40:20;;;;;;;;;;;;;;;;;;4927191;28;19918;-64
2023/10/14 09:42:45;;;;;;;;;;;;;;;;;;4930666;28;20144;-64
2023/10/14 09:45:12;;;;;;;;;;;;;;;;;;4946821;28;19922;-64
2023/10/14 09:47:38;;;;;;;;;;;;;;;;;;4948590;28;19929;-65
2023/10/14 09:50:05;;;;;;;;;;;;;;;;;;4961589;28;20015;-65
2023/10/14 09:52:31;;;;;;;;;;;;;;;;;;4934812;28;19918;-64
2023/10/14 09:54:56;;;;;;;;;;;;;;;;;;4949293;28;19930;-63
2023/10/14 09:57:21;;;;;;;;;;;;;;;;;;4949437;28;20160;-64
2023/10/14 09:59:49;;;;;;;;;;;;;;;;;;5011595;28;19948;-63
2023/10/14 10:02:14;;;;;;;;;;;;;;;;;;4925064;28;20365;-65
2023/10/14 10:04:42;;;;;;;;;;;;;;;;;;4942125;28;19922;-63
2023/10/14 10:07:08;;;;;;;;;;;;;;;;;;4946630;28;19961;-64
2023/10/14 10:09:34;;;;;;;;;;;;;;;;;;4926457;28;20001;-63
2023/10/14 10:11:59;;;;;;;;;;;;;;;;;;4933650;28;19922;-64
2023/10/14 10:14:28;;;;;;;;;;;;;;;;;;4925549;28;19922;-65
2023/10/14 10:16:53;;;;;;;;;;;;;;;;;;4948240;28;21384;-66
2023/10/14 10:19:21;;;;;;;;;;;;;;;;;;4944439;28;20387;-65
2023/10/14 10:21:47;;;;;;;;;;;;;;;;;;4947781;28;20449;-65
2023/10/14 10:24:12;;;;;;;;;;;;;;;;;;4948201;28;19922;-65
2023/10/14 10:26:40;;;;;;;;;;;;;;;;;;4942554;28;20776;-66
2023/10/14 10:29:05;;;;;;;;;;;;;;;;;;4950285;28;19962;-65
2023/10/14 10:31:32;;;;;;;;;;;;;;;;;;4964308;28;20421;-64
2023/10/14 10:33:58;;;;;;;;;;;;;;;;;;4914542;28;20280;-65
2023/10/14 10:36:26;;;;;;;;;;;;;;;;;;5008757;28;19975;-65
2023/10/14 10:38:54;;;;;;;;;;;;;;;;;;4946445;28;21294;-66
2023/10/14 10:41:25;;;;;;;;;;;;;;;;;;4929894;28;19918;-64
2023/10/14 10:43:53;;;;;;;;;;;;;;;;;;4936054;28;20422;-65
2023/10/14 10:46:18;;;;;;;;;;;;;;;;;;4950837;28;19918;-66
2023/10/14 10:48:44;;;;;;;;;;;;;;;;;;4962616;28;21932;-67
2023/10/14 10:51:11;;;;;;;;;;;;;;;;;;4950819;28;20335;-63
2023/10/14 10:53:42;;;;;;;;;;;;;;;;;;4946960;28;20427;-63
2023/10/14 10:56:07;;;;;;;;;;;;;;;;;;4949657;28;20020;-65
2023/10/14 10:58:32;;;;;;;;;;;;;;;;;;4944528;28;19929;-63
2023/10/14 11:01:01;;;;;;;;;;;;;;;;;;4963657;28;19946;-64
2023/10/14 11:03:31;;;;;;;;;;;;;;;;;;5009193;28;19918;-64
2023/10/14 11:05:56;;;;;;;;;;;;;;;;;;4941550;28;20655;-63
2023/10/14 11:08:22;;;;;;;;;;;;;;;;;;4961812;28;19947;-63
2023/10/14 11:10:48;;;;;;;;;;;;;;;;;;4942430;28;19932;-63
2023/10/14 11:13:13;;;;;;;;;;;;;;;;;;4948032;28;19918;-63
2023/10/14 11:15:38;;;;;;;;;;;;;;;;;;4911382;28;20022;-64
2023/10/14 11:18:09;;;;;;;;;;;;;;;;;;4944565;28;20568;-63
2023/10/14 11:20:35;;;;;;;;;;;;;;;;;;4960658;28;19930;-64
2023/10/14 11:23:08;;;;;;;;;;;;;;;;;;5007958;28;19922;-64
2023/10/14 11:25:35;;;;;;;;;;;;;;;;;;4942558;28;20456;-64
2023/10/14 11:28:00;;;;;;;;;;;;;;;;;;5005656;28;20659;-64
2023/10/14 11:30:28;;;;;;;;;;;;;;;;;;4950832;28;19928;-64
2023/10/14 11:32:56;;;;;;;;;;;;;;;;;;5008253;28;20398;-63
2023/10/14 11:35:24;;;;;;;;;;;;;;;;;;4947290;28;20044;-63
2023/10/14 11:37:52;;;;;;;;;;;;;;;;;;4925997;28;20268;-63
2023/10/14 11:40:17;;;;;;;;;;;;;;;;;;4960097;28;19922;-62
2023/10/14 11:42:46;;;;;;;;;;;;;;;;;;4949599;28;19929;-63
2023/10/14 11:45:17;;;;;;;;;;;;;;;;;;4962041;28;19984;-63
2023/10/14 11:47:44;;;;;;;;;;;;;;;;;;4947527;28;20021;-63
2023/10/14 11:50:15;;;;;;;;;;;;;;;;;;4939389;28;19930;-62
2023/10/14 11:52:51;;;;;;;;;;;;;;;;;;4926521;28;20016;-62
2023/10/14 11:58:33;;;;;;;;;;;;;;;;;;4943437;28;20463;-62
2023/10/14 12:00:58;;;;;;;;;;;;;;;;;;4963172;28;19918;-63
2023/10/14 12:03:26;;;;;;;;;;;;;;;;;;4950027;28;19922;-63
2023/10/14 12:05:57;;;;;;;;;;;;;;;;;;4946531;28;19925;-63
2023/10/14 12:08:25;;;;;;;;;;;;;;;;;;4959728;28;19936;-63
2023/10/14 12:10:50;;;;;;;;;;;;;;;;;;5006376;28;19919;-64
2023/10/14 12:13:16;;;;;;;;;;;;;;;;;;4925521;28;19922;-65
2023/10/14 12:15:41;;;;;;;;;;;;;;;;;;4962057;28;20029;-63
2023/10/14 12:18:06;;;;;;;;;;;;;;;;;;4959236;28;19929;-63
2023/10/14 12:20:34;;;;;;;;;;;;;;;;;;4945717;28;19930;-63
2023/10/14 12:23:02;;;;;;;;;;;;;;;;;;4946897;28;19953;-62
2023/10/14 12:25:28;;;;;;;;;;;;;;;;;;5006942;28;19926;-63
2023/10/14 12:27:57;;;;;;;;;;;;;;;;;;4941977;28;20466;-64
2023/10/14 12:30:35;;;;;;;;;;;;;;;;;;5008533;28;20033;-62
2023/10/14 12:33:05;;;;;;;;;;;;;;;;;;4939025;28;20440;-62
2023/10/14 12:35:32;;;;;;;;;;;;;;;;;;4950024;28;19921;-63
2023/10/14 12:37:58;;;;;;;;;;;;;;;;;;4946942;28;19964;-63
2023/10/14 12:40:24;;;;;;;;;;;;;;;;;;4941452;28;19914;-64
2023/10/14 12:42:59;;;;;;;;;;;;;;;;;;4944386;28;19923;-62
2023/10/14 12:45:25;;;;;;;;;;;;;;;;;;4946410;28;20273;-68
2023/10/14 12:47:55;;;;;;;;;;;;;;;;;;4947440;28;20154;-63
2023/10/14 12:50:23;;;;;;;;;;;;;;;;;;4949327;28;19961;-63
2023/10/14 12:52:49;;;;;;;;;;;;;;;;;;5005541;28;20392;-63
2023/10/14 12:55:22;;;;;;;;;;;;;;;;;;4918785;28;19933;-63
2023/10/14 12:57:47;;;;;;;;;;;;;;;;;;4940550;28;19933;-63
2023/10/14 13:00:19;;;;;;;;;;;;;;;;;;4947713;28;19922;-64
2023/10/14 13:02:50;;;;;;;;;;;;;;;;;;4961059;28;19976;-63
2023/10/14 13:05:18;;;;;;;;;;;;;;;;;;4945594;28;19929;-64
2023/10/14 13:07:47;;;;;;;;;;;;;;;;;;4946380;28;19930;-64
2023/10/14 13:10:18;;;;;;;;;;;;;;;;;;4946652;28;19918;-64
2023/10/14 13:12:49;;;;;;;;;;;;;;;;;;4940766;28;20273;-62
2023/10/14 13:15:25;;;;;;;;;;;;;;;;;;4925831;28;20017;-64
2023/10/14 13:17:50;;;;;;;;;;;;;;;;;;4944454;28;19979;-63
2023/10/14 13:20:20;;;;;;;;;;;;;;;;;;4945703;28;19938;-63
2023/10/14 13:22:45;;;;;;;;;;;;;;;;;;4945523;28;20377;-62
2023/10/14 13:25:16;;;;;;;;;;;;;;;;;;4941155;28;19930;-63
2023/10/14 13:27:49;;;;;;;;;;;;;;;;;;4915427;28;21032;-63
2023/10/14 13:30:16;;;;;;;;;;;;;;;;;;4945886;28;20311;-61
2023/10/14 13:32:47;;;;;;;;;;;;;;;;;;4948266;28;20051;-62
2023/10/14 13:35:16;;;;;;;;;;;;;;;;;;4962966;28;19918;-65
2023/10/14 13:37:44;;;;;;;;;;;;;;;;;;4909148;28;19922;-65
2023/10/14 13:40:09;;;;;;;;;;;;;;;;;;4925273;28;19922;-63
2023/10/14 13:42:37;;;;;;;;;;;;;;;;;;5006143;28;20459;-63
2023/10/14 13:45:04;;;;;;;;;;;;;;;;;;4962855;28;19926;-63
2023/10/14 13:47:32;;;;;;;;;;;;;;;;;;4948202;28;20331;-62
2023/10/14 13:50:00;;;;;;;;;;;;;;;;;;4943241;28;19955;-63
2023/10/14 13:52:26;;;;;;;;;;;;;;;;;;4962686;28;19922;-62
2023/10/14 13:54:53;;;;;;;;;;;;;;;;;;4937231;28;19926;-63
2023/10/14 13:57:23;;;;;;;;;;;;;;;;;;4948055;28;20358;-62
2023/10/14 13:59:51;;;;;;;;;;;;;;;;;;4928772;28;20041;-62
2023/10/14 14:02:19;;;;;;;;;;;;;;;;;;4964452;28;19987;-63
2023/10/14 14:04:44;;;;;;;;;;;;;;;;;;4942572;28;19932;-62
2023/10/14 14:07:10;;;;;;;;;;;;;;;;;;4951271;28;19922;-63
2023/10/14 14:09:35;;;;;;;;;;;;;;;;;;4927262;28;20154;-63
2023/10/14 14:12:00;;;;;;;;;;;;;;;;;;4927092;28;19937;-64
2023/10/14 14:14:26;;;;;;;;;;;;;;;;;;4947176;28;20009;-64
2023/10/14 14:16:54;;;;;;;;;;;;;;;;;;5009040;28;20652;-63
2023/10/14 14:19:19;;;;;;;;;;;;;;;;;;4941363;28;19926;-64
2023/10/14 14:21:45;;;;;;;;;;;;;;;;;;4928717;28;19929;-61
2023/10/14 14:24:10;;;;;;;;;;;;;;;;;;4922203;28;20336;-62
2023/10/14 14:26:38;;;;;;;;;;;;;;;;;;4925879;28;19923;-63
2023/10/14 14:29:03;;;;;;;;;;;;;;;;;;4944694;28;19918;-63
2023/10/14 14:31:30;;;;;;;;;;;;;;;;;;4927770;28;19949;-64
2023/10/14 14:33:55;;;;;;;;;;;;;;;;;;4926675;28;20116;-63
2023/10/14 14:36:26;;;;;;;;;;;;;;;;;;4937840;28;20623;-62
2023/10/14 14:38:54;;;;;;;;;;;;;;;;;;4928376;28;20626;-62
2023/10/14 14:41:25;;;;;;;;;;;;;;;;;;4941240;28;19923;-65
2023/10/14 14:43:57;;;;;;;;;;;;;;;;;;4939972;28;20551;-64
2023/10/14 14:46:25;;;;;;;;;;;;;;;;;;4945405;28;19985;-64
2023/10/14 14:48:52;;;;;;;;;;;;;;;;;;4924451;28;19938;-64
2023/10/14 14:51:18;;;;;;;;;;;;;;;;;;4927355;28;19954;-64
2023/10/14 14:53:44;;;;;;;;;;;;;;;;;;4941917;28;19918;-64
2023/10/14 14:56:14;;;;;;;;;;;;;;;;;;4924128;28;19937;-64
2023/10/14 14:58:39;;;;;;;;;;;;;;;;;;4928346;28;19923;-65
2023/10/14 15:01:04;;;;;;;;;;;;;;;;;;4922648;28;19922;-65
2023/10/14 15:03:30;;;;;;;;;;;;;;;;;;4939263;28;19948;-65
2023/10/14 15:05:58;;;;;;;;;;;;;;;;;;4927482;28;19922;-64
2023/10/14 15:08:23;;;;;;;;;;;;;;;;;;4930614;28;20487;-65
2023/10/14 15:10:49;;;;;;;;;;;;;;;;;;4908859;28;20065;-63
2023/10/14 15:13:17;;;;;;;;;;;;;;;;;;4930339;28;19923;-65
2023/10/14 15:15:42;;;;;;;;;;;;;;;;;;4939240;28;20399;-64
2023/10/14 15:18:13;;;;;;;;;;;;;;;;;;4926491;28;19922;-64
2023/10/14 15:20:41;;;;;;;;;;;;;;;;;;4938283;28;20641;-64
2023/10/14 15:23:10;;;;;;;;;;;;;;;;;;4938892;28;19918;-62
2023/10/14 15:25:38;;;;;;;;;;;;;;;;;;4922195;28;19999;-63
2023/10/14 15:28:11;;;;;;;;;;;;;;;;;;4939930;28;20009;-64
2023/10/14 15:30:36;;;;;;;;;;;;;;;;;;4937509;28;20010;-63
2023/10/14 15:33:07;;;;;;;;;;;;;;;;;;4921661;28;19922;-63
2023/10/14 15:35:32;;;;;;;;;;;;;;;;;;4940025;28;19964;-63
2023/10/14 15:37:58;;;;;;;;;;;;;;;;;;4926051;28;19926;-63
2023/10/14 15:40:23;;;;;;;;;;;;;;;;;;4939517;28;19951;-63
2023/10/14 15:42:50;;;;;;;;;;;;;;;;;;4921474;28;20231;-63
2023/10/14 15:45:23;;;;;;;;;;;;;;;;;;4922142;28;20687;-63
2023/10/14 15:47:51;;;;;;;;;;;;;;;;;;4928213;28;19957;-63
2023/10/14 15:50:20;;;;;;;;;;;;;;;;;;4921969;28;20006;-62
2023/10/14 15:52:46;;;;;;;;;;;;;;;;;;4929151;28;19973;-64
2023/10/14 15:55:12;;;;;;;;;;;;;;;;;;4923423;28;20364;-62
2023/10/14 15:57:38;;;;;;;;;;;;;;;;;;4923786;28;19997;-63
2023/10/14 16:00:03;;;;;;;;;;;;;;;;;;4925601;28;20017;-63
2023/10/14 16:02:28;;;;;;;;;;;;;;;;;;4926114;28;19949;-63
2023/10/14 16:04:56;;;;;;;;;;;;;;;;;;4942170;28;19918;-63
2023/10/14 16:07:23;;;;;;;;;;;;;;;;;;4936232;28;19919;-65
2023/10/14 16:09:52;;;;;;;;;;;;;;;;;;4923452;28;19933;-64
2023/10/14 16:12:17;;;;;;;;;;;;;;;;;;4924470;28;19918;-64
2023/10/14 16:14:43;;;;;;;;;;;;;;;;;;4938588;28;20362;-63
2023/10/14 16:17:08;;;;;;;;;;;;;;;;;;4926530;28;19923;-64
2023/10/14 16:19:36;;;;;;;;;;;;;;;;;;4948509;28;20163;-63
2023/10/14 16:22:04;;;;;;;;;;;;;;;;;;4946552;28;19922;-63
2023/10/14 16:24:29;;;;;;;;;;;;;;;;;;4906982;28;19980;-64
2023/10/14 16:26:54;;;;;;;;;;;;;;;;;;4959755;28;19992;-64
2023/10/14 16:29:20;;;;;;;;;;;;;;;;;;4934397;28;19925;-63
2023/10/14 16:31:48;;;;;;;;;;;;;;;;;;4929172;28;20680;-64
2023/10/14 16:34:14;;;;;;;;;;;;;;;;;;5008270;28;19922;-62
2023/10/14 16:36:40;;;;;;;;;;;;;;;;;;4944125;28;21551;-64
2023/10/14 16:39:09;;;;;;;;;;;;;;;;;;5007912;28;20312;-63
2023/10/14 16:41:34;;;;;;;;;;;;;;;;;;4931373;28;20281;-62
2023/10/14 16:44:00;;;;;;;;;;;;;;;;;;5005912;28;19972;-62
2023/10/14 16:46:25;;;;;;;;;;;;;;;;;;5009401;28;19931;-64
2023/10/14 16:48:51;;;;;;;;;;;;;;;;;;4945944;28;19926;-61
2023/10/14 16:51:16;;;;;;;;;;;;;;;;;;4924023;28;20720;-63
2023/10/14 16:53:48;;;;;;;;;;;;;;;;;;5006990;28;19929;-64
2023/10/14 16:56:14;;;;;;;;;;;;;;;;;;4944259;28;20095;-63
2023/10/14 16:58:39;;;;;;;;;;;;;;;;;;5007276;28;20366;-64
2023/10/14 17:01:07;;;;;;;;;;;;;;;;;;4944769;28;19929;-63
2023/10/14 17:03:32;;;;;;;;;;;;;;;;;;4927899;28;21536;-63
2023/10/14 17:05:58;;;;;;;;;;;;;;;;;;4945776;28;19918;-64
2023/10/14 17:08:31;;;;;;;;;;;;;;;;;;4944187;28;19918;-64
2023/10/14 17:10:59;;;;;;;;;;;;;;;;;;4945870;28;19928;-64
2023/10/14 17:13:27;;;;;;;;;;;;;;;;;;4940030;28;19922;-64
2023/10/14 17:15:55;;;;;;;;;;;;;;;;;;4996318;28;20000;-63
2023/10/14 17:18:21;;;;;;;;;;;;;;;;;;4960331;28;19918;-64
2023/10/14 17:20:47;;;;;;;;;;;;;;;;;;4950478;28;19930;-64
2023/10/14 17:23:15;;;;;;;;;;;;;;;;;;4924751;28;19922;-64
2023/10/14 17:25:41;;;;;;;;;;;;;;;;;;4943542;28;19919;-64
2023/10/14 17:28:22;;;;;;;;;;;;;;;;;;4941597;28;20029;-63
2023/10/14 17:30:50;;;;;;;;;;;;;;;;;;4964792;28;19922;-64
2023/10/14 17:33:18;;;;;;;;;;;;;;;;;;4917278;28;19941;-63
2023/10/14 17:35:44;;;;;;;;;;;;;;;;;;4940134;28;20415;-64
2023/10/14 17:38:13;;;;;;;;;;;;;;;;;;4945673;28;20027;-63
2023/10/14 17:40:39;;;;;;;;;;;;;;;;;;4958540;28;19923;-65
2023/10/14 17:43:09;;;;;;;;;;;;;;;;;;4947352;28;19922;-64
2023/10/14 17:45:38;;;;;;;;;;;;;;;;;;4961115;28;19918;-64
2023/10/14 17:48:06;;;;;;;;;;;;;;;;;;4950846;28;19928;-65
2023/10/14 17:50:31;;;;;;;;;;;;;;;;;;4959258;28;20024;-64
2023/10/14 17:52:56;;;;;;;;;;;;;;;;;;4964890;28;20290;-63
2023/10/14 17:55:25;;;;;;;;;;;;;;;;;;4928057;28;20385;-61
2023/10/14 17:57:50;;;;;;;;;;;;;;;;;;4950785;28;19922;-64
2023/10/14 18:00:36;;;;;;;;;;;;;;;;;;4948719;28;20059;-62
2023/10/14 18:03:07;;;;;;;;;;;;;;;;;;4949674;28;19918;-62
2023/10/14 18:05:35;;;;;;;;;;;;;;;;;;4935415;28;19926;-62
2023/10/14 18:08:09;;;;;;;;;;;;;;;;;;4948849;28;19922;-66
2023/10/14 18:10:36;;;;;;;;;;;;;;;;;;4948374;28;20010;-62
2023/10/14 18:13:06;;;;;;;;;;;;;;;;;;4946623;28;19922;-65
2023/10/14 18:15:32;;;;;;;;;;;;;;;;;;4960474;28;20663;-64
2023/10/14 18:17:58;;;;;;;;;;;;;;;;;;5007646;28;21151;-63
2023/10/14 18:20:26;;;;;;;;;;;;;;;;;;4951216;28;19926;-63
2023/10/14 18:22:51;;;;;;;;;;;;;;;;;;4925792;28;19926;-63
2023/10/14 18:25:19;;;;;;;;;;;;;;;;;;4958845;28;19929;-62
2023/10/14 18:27:45;;;;;;;;;;;;;;;;;;5009450;28;19922;-62
2023/10/14 18:30:13;;;;;;;;;;;;;;;;;;4938321;28;19918;-63
2023/10/14 18:32:39;;;;;;;;;;;;;;;;;;4949468;28;19922;-63
2023/10/14 18:35:07;;;;;;;;;;;;;;;;;;4943418;28;19992;-63
2023/10/14 18:37:35;;;;;;;;;;;;;;;;;;4947459;28;20024;-63
2023/10/14 18:40:04;;;;;;;;;;;;;;;;;;4947302;28;20312;-63
2023/10/14 18:42:29;;;;;;;;;;;;;;;;;;4938730;28;19922;-63
2023/10/14 18:44:54;;;;;;;;;;;;;;;;;;4947717;28;19921;-64
2023/10/14 18:50:37;;;;;;;;;;;;;;;;;;4947302;28;19940;-64
2023/10/14 18:53:06;;;;;;;;;;;;;;;;;;4913594;28;20017;-63
2023/10/14 18:55:35;;;;;;;;;;;;;;;;;;4944531;28;19944;-63
2023/10/14 18:58:04;;;;;;;;;;;;;;;;;;4948793;28;19933;-63
2023/10/14 19:00:30;;;;;;;;;;;;;;;;;;4961565;28;19918;-62
2023/10/14 19:02:59;;;;;;;;;;;;;;;;;;4961434;28;20005;-63
2023/10/14 19:05:28;;;;;;;;;;;;;;;;;;4962000;28;20366;-63
2023/10/14 19:07:56;;;;;;;;;;;;;;;;;;4946781;28;20499;-64
2023/10/14 19:10:24;;;;;;;;;;;;;;;;;;4925624;28;20006;-63
2023/10/14 19:12:50;;;;;;;;;;;;;;;;;;4949050;28;19918;-63
2023/10/14 19:15:19;;;;;;;;;;;;;;;;;;5007097;28;20020;-63
2023/10/14 19:17:48;;;;;;;;;;;;;;;;;;4943063;28;20396;-63
2023/10/14 19:20:13;;;;;;;;;;;;;;;;;;4887030;28;1823613;-63
2023/10/14 19:22:42;;;;;;;;;;;;;;;;;;4943433;28;19922;-63
2023/10/14 19:25:15;;;;;;;;;;;;;;;;;;4936974;28;20056;-63
2023/10/14 19:27:40;;;;;;;;;;;;;;;;;;4964648;28;20343;-62
2023/10/14 19:30:09;;;;;;;;;;;;;;;;;;4927375;28;19985;-63
2023/10/14 19:32:37;;;;;;;;;;;;;;;;;;4948673;28;20456;-63
2023/10/14 19:35:03;;;;;;;;;;;;;;;;;;4938897;28;19965;-64
2023/10/14 19:37:29;;;;;;;;;;;;;;;;;;4938268;28;19926;-64
2023/10/14 19:39:55;;;;;;;;;;;;;;;;;;5008615;28;19933;-63
2023/10/14 19:42:20;;;;;;;;;;;;;;;;;;4946171;28;19919;-63
2023/10/14 19:44:45;;;;;;;;;;;;;;;;;;4949263;28;19926;-62
2023/10/14 19:47:16;;;;;;;;;;;;;;;;;;4912557;28;19969;-62
2023/10/14 19:49:44;;;;;;;;;;;;;;;;;;4960712;28;19918;-63
2023/10/14 19:52:12;;;;;;;;;;;;;;;;;;4961400;28;19929;-63
2023/10/14 19:54:38;;;;;;;;;;;;;;;;;;4948336;28;19922;-63
2023/10/14 19:57:05;;;;;;;;;;;;;;;;;;5007955;28;19926;-62
2023/10/14 19:59:34;;;;;;;;;;;;;;;;;;4961684;28;19928;-63
2023/10/14 20:01:59;;;;;;;;;;;;;;;;;;5009149;28;19922;-63